createdAt,value
2019-04-03T00:00:36.621Z,3.70
2019-04-03T00:03:04.739Z,3.02
2019-04-03T00:05:31.306Z,5.75
2019-04-03T00:07:57.877Z,6.33
2019-04-03T00:10:24.461Z,2.80
2019-04-03T00:12:51.217Z,3.95
2019-04-03T00:15:17.809Z,2.80
2019-04-03T00:17:45.994Z,3.52
2019-04-03T00:20:12.307Z,5.25
2019-04-03T00:22:38.730Z,4.60
2019-04-03T00:25:05.861Z,6.05
2019-04-03T00:27:32.113Z,4.67
2019-04-03T00:29:58.583Z,4.17
2019-04-03T00:32:24.833Z,3.27
2019-04-03T00:34:51.772Z,3.42
2019-04-03T00:37:19.417Z,4.55
2019-04-03T00:39:45.654Z,2.65
2019-04-03T00:42:11.944Z,5.57
2019-04-03T00:44:38.394Z,2.98
2019-04-03T00:47:04.831Z,3.95
2019-04-03T00:49:31.281Z,3.20
2019-04-03T00:51:58.092Z,5.72
2019-04-03T00:54:24.758Z,4.58
2019-04-03T00:56:52.609Z,2.50
2019-04-03T00:59:19.049Z,5.50
2019-04-03T01:01:45.377Z,5.00
2019-04-03T01:04:11.753Z,3.17
2019-04-03T01:06:38.110Z,3.05
2019-04-03T01:09:06.038Z,2.55
2019-04-03T01:11:32.309Z,3.70
2019-04-03T01:13:59.728Z,2.97
2019-04-03T01:16:26.895Z,5.83
2019-04-03T01:18:53.196Z,3.62
2019-04-03T01:21:19.390Z,6.42
2019-04-03T01:23:45.741Z,2.23
2019-04-03T01:26:12.016Z,4.80
2019-04-03T01:28:38.469Z,2.98
2019-04-03T01:31:06.104Z,3.67
2019-04-03T01:33:32.477Z,3.95
2019-04-03T01:35:59.196Z,3.60
2019-04-03T01:38:25.533Z,4.87
2019-04-03T01:40:51.977Z,6.03
2019-04-03T01:43:18.232Z,3.83
2019-04-03T01:45:44.577Z,3.67
2019-04-03T01:48:11.061Z,3.47
2019-04-03T01:50:37.679Z,4.60
2019-04-03T01:53:04.139Z,4.17
2019-04-03T01:55:30.601Z,3.60
2019-04-03T01:57:56.840Z,5.50
2019-04-03T02:00:23.297Z,2.70
2019-04-03T02:02:49.644Z,8.03
2019-04-03T02:05:16.113Z,6.75
2019-04-03T02:07:44.216Z,4.27
2019-04-03T02:10:19.837Z,4.37
2019-04-03T02:12:46.261Z,3.60
2019-04-03T02:15:12.601Z,2.80
2019-04-03T02:17:39.140Z,5.12
2019-04-03T02:20:05.564Z,8.48
2019-04-03T02:22:31.809Z,5.37
2019-04-03T02:24:58.059Z,4.80
2019-04-03T02:27:24.395Z,7.78
2019-04-03T02:29:50.752Z,4.60
2019-04-03T02:32:17.332Z,6.00
2019-04-03T02:34:43.610Z,4.53
2019-04-03T02:37:09.958Z,6.45
2019-04-03T02:39:36.725Z,4.23
2019-04-03T02:42:03.137Z,4.43
2019-04-03T02:44:29.464Z,3.43
2019-04-03T02:46:59.448Z,4.67
2019-04-03T02:49:24.280Z,5.17
2019-04-03T02:51:53.280Z,5.00
2019-04-03T02:54:26.994Z,8.10
2019-04-03T02:56:54.732Z,3.58
2019-04-03T02:59:21.011Z,6.72
2019-04-03T03:01:47.483Z,4.58
2019-04-03T03:04:13.821Z,4.30
2019-04-03T03:06:40.309Z,4.70
2019-04-03T03:09:06.739Z,3.47
2019-04-03T03:11:33.254Z,3.85
2019-04-03T03:14:00.398Z,6.72
2019-04-03T03:16:26.991Z,5.70
2019-04-03T03:18:53.527Z,7.50
2019-04-03T03:21:20.422Z,4.20
2019-04-03T03:23:47.930Z,5.58
2019-04-03T03:26:14.673Z,6.35
2019-04-03T03:28:41.552Z,8.15
2019-04-03T03:31:09.710Z,7.05
2019-04-03T03:33:40.092Z,5.13
2019-04-03T03:36:04.961Z,5.37
2019-04-03T03:38:32.049Z,5.22
2019-04-03T03:40:58.789Z,6.50
2019-04-03T03:43:25.550Z,7.42
2019-04-03T03:45:53.740Z,4.22
2019-04-03T03:48:20.813Z,5.33
2019-04-03T03:50:47.831Z,8.25
2019-04-03T03:53:14.490Z,3.30
2019-04-03T03:55:41.330Z,5.25
2019-04-03T03:58:12.501Z,7.80
2019-04-03T04:00:37.692Z,7.80
2019-04-03T04:03:04.302Z,6.20
2019-04-03T04:05:30.810Z,5.53
2019-04-03T04:07:57.065Z,6.83
2019-04-03T04:10:27.038Z,3.87
2019-04-03T04:12:53.703Z,8.40
2019-04-03T04:15:20.259Z,8.10
2019-04-03T04:17:50.447Z,4.63
2019-04-03T04:20:14.838Z,6.03
2019-04-03T04:22:42.289Z,6.25
2019-04-03T04:25:08.835Z,5.63
2019-04-03T04:27:37.838Z,4.80
2019-04-03T04:30:04.633Z,4.20
2019-04-03T04:32:31.192Z,7.65
2019-04-03T04:34:57.416Z,7.37
2019-04-03T04:37:26.040Z,6.28
2019-04-03T04:39:51.945Z,7.35
2019-04-03T04:42:18.293Z,10.80
2019-04-03T04:44:44.842Z,6.15
2019-04-03T04:47:11.177Z,5.50
2019-04-03T04:49:37.423Z,5.20
2019-04-03T04:52:03.890Z,13.65
2019-04-03T04:54:31.009Z,10.93
2019-04-03T04:56:57.704Z,6.92
2019-04-03T04:59:24.251Z,8.43
2019-04-03T05:01:50.697Z,5.70
2019-04-03T05:04:17.161Z,5.80
2019-04-03T05:06:43.526Z,5.08
2019-04-03T05:09:09.973Z,7.77
2019-04-03T05:11:38.275Z,8.25
2019-04-03T05:14:04.913Z,5.70
2019-04-03T05:16:31.253Z,6.20
2019-04-03T05:19:08.668Z,6.57
2019-04-03T05:21:26.041Z,7.03
2019-04-03T05:23:52.393Z,8.55
2019-04-03T05:26:21.034Z,6.95
2019-04-03T05:28:55.640Z,7.22
2019-04-03T05:31:14.959Z,5.53
2019-04-03T05:33:42.319Z,6.20
2019-04-03T05:36:08.781Z,7.33
2019-04-03T05:38:37.635Z,4.62
2019-04-03T05:41:03.730Z,8.63
2019-04-03T05:43:30.807Z,5.28
2019-04-03T05:45:57.928Z,4.58
2019-04-03T05:48:24.358Z,7.28
2019-04-03T05:50:50.757Z,8.35
2019-04-03T05:53:17.196Z,6.53
2019-04-03T05:55:43.871Z,6.20
2019-04-03T05:58:10.383Z,5.67
2019-04-03T06:00:38.185Z,9.43
2019-04-03T06:03:04.861Z,9.55
2019-04-03T06:05:31.316Z,9.70
2019-04-03T06:07:57.634Z,7.78
2019-04-03T06:10:27.082Z,7.00
2019-04-03T06:12:52.636Z,6.95
2019-04-03T06:15:21.697Z,7.85
2019-04-03T06:17:49.951Z,8.23
2019-04-03T06:20:15.558Z,6.78
2019-04-03T06:22:42.061Z,10.00
2019-04-03T06:25:12.683Z,9.55
2019-04-03T06:27:36.849Z,7.87
2019-04-03T06:30:06.697Z,7.72
2019-04-03T06:32:33.221Z,7.45
2019-04-03T06:34:59.845Z,7.70
2019-04-03T06:37:26.104Z,8.35
2019-04-03T06:39:52.462Z,5.17
2019-04-03T06:42:19.088Z,8.95
2019-04-03T06:44:45.607Z,11.20
2019-04-03T06:47:11.954Z,6.40
2019-04-03T06:49:40.572Z,10.03
2019-04-03T06:52:06.528Z,5.75
2019-04-03T06:54:32.681Z,6.70
2019-04-03T06:56:59.356Z,8.00
2019-04-03T06:59:25.839Z,7.17
2019-04-03T07:01:53.268Z,9.30
2019-04-03T07:04:20.117Z,6.17
2019-04-03T07:06:46.549Z,8.33
2019-04-03T07:09:22.802Z,11.85
2019-04-03T07:11:43.210Z,7.12
2019-04-03T07:14:09.404Z,6.05
2019-04-03T07:16:38.089Z,9.10
2019-04-03T07:19:04.145Z,8.58
2019-04-03T07:21:30.473Z,7.03
2019-04-03T07:23:56.833Z,9.25
2019-04-03T07:26:23.275Z,8.33
2019-04-03T07:28:49.625Z,7.90
2019-04-03T07:31:15.964Z,9.33
2019-04-03T07:33:42.341Z,7.97
2019-04-03T07:36:10.885Z,7.62
2019-04-03T07:38:36.829Z,8.10
2019-04-03T07:41:03.417Z,9.00
2019-04-03T07:43:29.761Z,10.60
2019-04-03T07:45:56.188Z,6.72
2019-04-03T07:48:22.866Z,7.25
2019-04-03T07:50:49.203Z,9.00
2019-04-03T07:53:15.660Z,8.75
2019-04-03T07:55:44.198Z,5.62
2019-04-03T07:58:10.253Z,5.65
2019-04-03T08:00:38.548Z,6.85
2019-04-03T08:03:05.061Z,9.55
2019-04-03T08:05:31.682Z,4.67
2019-04-03T08:07:58.038Z,6.95
2019-04-03T08:10:24.392Z,8.35
2019-04-03T08:12:50.746Z,13.45
2019-04-03T08:15:17.081Z,9.38
2019-04-03T08:17:43.564Z,7.62
2019-04-03T08:20:10.384Z,8.60
2019-04-03T08:22:36.904Z,5.90
2019-04-03T08:25:05.549Z,7.45
2019-04-03T08:27:31.912Z,7.08
2019-04-03T08:29:58.157Z,11.03
2019-04-03T08:32:24.402Z,8.58
2019-04-03T08:34:51.053Z,7.70
2019-04-03T08:37:28.445Z,11.15
2019-04-03T08:39:48.465Z,10.93
2019-04-03T08:42:13.800Z,6.90
2019-04-03T08:44:39.997Z,8.35
2019-04-03T08:47:06.619Z,7.92
2019-04-03T08:49:33.017Z,12.58
2019-04-03T08:51:59.289Z,7.60
2019-04-03T08:54:26.001Z,5.80
2019-04-03T08:56:52.445Z,6.92
2019-04-03T08:59:18.682Z,6.75
2019-04-03T09:01:45.077Z,11.15
2019-04-03T09:04:11.442Z,5.17
2019-04-03T09:06:37.789Z,6.45
2019-04-03T09:09:07.544Z,13.08
2019-04-03T09:11:36.104Z,8.08
2019-04-03T09:14:02.220Z,7.35
2019-04-03T09:16:31.287Z,10.15
2019-04-03T09:18:56.924Z,5.95
2019-04-03T09:21:23.400Z,8.50
2019-04-03T09:23:49.801Z,6.50
2019-04-03T09:26:16.396Z,8.83
2019-04-03T09:28:42.923Z,8.40
2019-04-03T09:31:09.950Z,7.42
2019-04-03T09:33:36.237Z,5.58
2019-04-03T09:36:04.326Z,9.43
2019-04-03T09:38:30.972Z,7.58
2019-04-03T09:40:57.461Z,8.23
2019-04-03T09:43:23.658Z,10.18
2019-04-03T09:45:50.188Z,8.00
2019-04-03T09:48:16.459Z,10.80
2019-04-03T09:50:45.730Z,7.87
2019-04-03T09:53:11.558Z,5.95
2019-04-03T09:55:38.297Z,9.63
2019-04-03T09:58:04.961Z,8.45
2019-04-03T10:00:31.867Z,8.43
2019-04-03T10:02:58.533Z,6.85
2019-04-03T10:05:24.820Z,7.65
2019-04-03T10:07:51.534Z,7.58
2019-04-03T10:10:19.282Z,10.08
2019-04-03T10:12:47.948Z,7.83
2019-04-03T10:15:14.429Z,9.35
2019-04-03T10:17:40.865Z,7.55
2019-04-03T10:20:08.307Z,8.40
2019-04-03T10:22:35.228Z,6.53
2019-04-03T10:25:04.853Z,8.90
2019-04-03T10:27:30.274Z,6.67
2019-04-03T10:29:56.592Z,8.08
2019-04-03T10:32:22.913Z,8.30
2019-04-03T10:34:49.501Z,8.18
2019-04-03T10:37:16.107Z,7.67
2019-04-03T10:39:44.692Z,7.75
2019-04-03T10:42:10.826Z,6.03
2019-04-03T10:44:37.360Z,7.28
2019-04-03T10:47:03.826Z,8.30
2019-04-03T10:49:32.490Z,9.45
2019-04-03T10:51:58.666Z,8.90
2019-04-03T10:54:25.775Z,11.08
2019-04-03T10:56:52.107Z,8.73
2019-04-03T10:59:18.992Z,9.58
2019-04-03T11:01:45.646Z,8.95
2019-04-03T11:04:12.161Z,9.00
2019-04-03T11:06:38.585Z,7.80
2019-04-03T11:09:07.672Z,10.35
2019-04-03T11:11:36.517Z,10.40
2019-04-03T11:14:03.194Z,11.70
2019-04-03T11:16:30.375Z,5.75
2019-04-03T11:18:59.914Z,9.58
2019-04-03T11:21:24.694Z,9.45
2019-04-03T11:23:51.061Z,8.73
2019-04-03T11:26:18.335Z,10.10
2019-04-03T11:28:45.938Z,10.18
2019-04-03T11:31:23.928Z,8.83
2019-04-03T11:33:40.545Z,8.70
2019-04-03T11:36:07.108Z,13.05
2019-04-03T11:38:33.443Z,11.43
2019-04-03T11:41:11.362Z,8.25
2019-04-03T11:43:30.827Z,10.68
2019-04-03T11:45:56.200Z,6.87
2019-04-03T11:48:22.542Z,8.68
2019-04-03T11:50:48.984Z,8.35
2019-04-03T11:53:15.232Z,8.40
2019-04-03T11:55:42.037Z,12.50
2019-04-03T11:58:09.105Z,11.65
2019-04-03T12:00:37.612Z,11.40
2019-04-03T12:03:03.969Z,7.40
2019-04-03T12:05:30.538Z,8.13
2019-04-03T12:07:57.434Z,9.85
2019-04-03T12:10:25.916Z,10.93
2019-04-03T12:12:52.782Z,9.03
2019-04-03T12:15:21.568Z,6.55
2019-04-03T12:17:47.523Z,12.45
2019-04-03T12:20:15.883Z,7.80
2019-04-03T12:22:42.831Z,12.53
2019-04-03T12:25:09.448Z,10.80
2019-04-03T12:27:36.666Z,7.70
2019-04-03T12:30:07.622Z,10.58
2019-04-03T12:32:38.513Z,10.45
2019-04-03T12:35:04.746Z,9.73
2019-04-03T12:37:31.344Z,9.93
2019-04-03T12:40:00.221Z,10.13
2019-04-03T12:42:26.081Z,7.75
2019-04-03T12:44:54.710Z,14.10
2019-04-03T12:47:20.596Z,11.18
2019-04-03T12:49:47.229Z,14.20
2019-04-03T12:52:13.560Z,8.73
2019-04-03T12:54:40.129Z,9.05
2019-04-03T12:57:06.813Z,12.10
2019-04-03T12:59:33.176Z,11.00
2019-04-03T13:01:59.524Z,11.30
2019-04-03T13:04:29.828Z,12.93
2019-04-03T13:06:54.271Z,11.45
2019-04-03T13:09:20.798Z,12.50
2019-04-03T13:11:49.918Z,12.40
2019-04-03T13:14:24.225Z,7.97
2019-04-03T13:16:46.474Z,12.50
2019-04-03T13:19:14.654Z,10.58
2019-04-03T13:21:40.232Z,9.48
2019-04-03T13:24:06.853Z,8.88
2019-04-03T13:26:33.721Z,8.78
2019-04-03T13:29:00.169Z,11.43
2019-04-03T13:31:26.421Z,10.40
2019-04-03T13:33:53.279Z,11.05
2019-04-03T13:36:19.804Z,9.10
2019-04-03T13:38:46.156Z,10.10
2019-04-03T13:41:12.644Z,11.57
2019-04-03T13:43:39.494Z,11.75
2019-04-03T13:46:05.958Z,9.73
2019-04-03T13:48:32.401Z,6.62
2019-04-03T13:50:59.109Z,11.20
2019-04-03T13:53:25.825Z,11.93
2019-04-03T13:55:52.640Z,9.93
2019-04-03T13:58:21.192Z,9.83
2019-04-03T14:00:57.843Z,11.80
2019-04-03T14:03:17.814Z,11.90
2019-04-03T14:05:43.954Z,9.90
2019-04-03T14:08:12.134Z,11.15
2019-04-03T14:10:38.711Z,8.63
2019-04-03T14:13:05.123Z,11.40
2019-04-03T14:15:31.363Z,12.30
2019-04-03T14:17:59.163Z,13.13
2019-04-03T14:20:25.973Z,9.15
2019-04-03T14:22:52.599Z,10.63
2019-04-03T14:25:22.594Z,8.93
2019-04-03T14:27:47.738Z,11.35
2019-04-03T14:30:14.417Z,12.53
2019-04-03T14:32:41.529Z,10.80
2019-04-03T14:35:38.441Z,8.60
2019-04-03T14:37:37.477Z,12.82
2019-04-03T14:40:05.717Z,8.28
2019-04-03T14:42:32.188Z,9.05
2019-04-03T14:44:58.842Z,13.10
2019-04-03T14:47:27.499Z,11.65
2019-04-03T14:49:53.803Z,7.45
2019-04-03T14:52:20.101Z,8.03
2019-04-03T14:54:46.574Z,6.85
2019-04-03T14:57:20.387Z,15.43
2019-04-03T14:59:41.138Z,10.18
2019-04-03T15:02:07.915Z,9.15
2019-04-03T15:04:37.118Z,11.03
2019-04-03T15:07:08.361Z,10.35
2019-04-03T15:09:31.076Z,9.25
2019-04-03T15:11:57.302Z,10.05
2019-04-03T15:14:23.663Z,12.65
2019-04-03T15:16:50.833Z,8.35
2019-04-03T15:19:17.400Z,12.78
2019-04-03T15:21:44.281Z,15.43
2019-04-03T15:24:11.457Z,10.35
2019-04-03T15:26:38.484Z,12.68
2019-04-03T15:29:05.033Z,11.93
2019-04-03T15:31:31.308Z,10.75
2019-04-03T15:33:58.197Z,12.95
2019-04-03T15:36:24.434Z,13.08
2019-04-03T15:38:50.914Z,9.28
2019-04-03T15:41:17.352Z,10.00
2019-04-03T15:43:46.634Z,13.15
2019-04-03T15:46:12.173Z,13.35
2019-04-03T15:48:39.984Z,10.95
2019-04-03T15:51:07.262Z,13.50
2019-04-03T15:53:34.097Z,15.25
2019-04-03T15:56:00.462Z,8.70
2019-04-03T15:58:27.285Z,11.93
2019-04-03T16:00:53.865Z,9.68
2019-04-03T16:03:20.775Z,12.68
2019-04-03T16:05:47.254Z,13.38
2019-04-03T16:08:14.075Z,12.55
2019-04-03T16:10:40.677Z,10.18
2019-04-03T16:13:07.055Z,9.73
2019-04-03T16:15:33.537Z,12.35
2019-04-03T16:17:59.977Z,17.00
2019-04-03T16:20:26.545Z,10.03
2019-04-03T16:22:53.634Z,9.83
2019-04-03T16:25:20.264Z,10.60
2019-04-03T16:27:46.712Z,12.68
2019-04-03T16:30:15.515Z,11.15
2019-04-03T16:32:41.341Z,10.43
2019-04-03T16:35:07.859Z,10.90
2019-04-03T16:37:34.731Z,10.53
2019-04-03T16:40:04.538Z,11.05
2019-04-03T16:42:29.294Z,13.00
2019-04-03T16:44:57.786Z,9.60
2019-04-03T16:47:25.444Z,9.80
2019-04-03T16:49:54.943Z,10.50
2019-04-03T16:52:20.962Z,9.55
2019-04-03T16:54:47.418Z,12.95
2019-04-03T16:57:13.831Z,12.50
2019-04-03T16:59:40.490Z,10.13
2019-04-03T17:02:06.922Z,16.50
2019-04-03T17:04:35.648Z,11.05
2019-04-03T17:07:01.811Z,8.98
2019-04-03T17:09:28.101Z,14.70
2019-04-03T17:11:54.856Z,13.68
2019-04-03T17:14:23.865Z,11.68
2019-04-03T17:16:49.509Z,9.68
2019-04-03T17:19:17.563Z,12.05
2019-04-03T17:21:44.312Z,12.93
2019-04-03T17:24:10.861Z,10.82
2019-04-03T17:26:47.967Z,13.28
2019-04-03T17:29:06.362Z,11.48
2019-04-03T17:31:33.278Z,15.08
2019-04-03T17:33:59.513Z,9.95
2019-04-03T17:36:26.161Z,10.48
2019-04-03T17:41:30.447Z,9.65
2019-04-03T17:43:56.877Z,12.68
2019-04-03T17:46:25.291Z,12.95
2019-04-03T17:48:51.673Z,15.28
2019-04-03T17:51:17.905Z,8.58
2019-04-03T17:53:44.164Z,11.55
2019-04-03T17:56:12.327Z,12.40
2019-04-03T17:58:38.677Z,13.15
2019-04-03T18:01:05.012Z,14.95
2019-04-03T18:03:31.642Z,11.88
2019-04-03T18:05:58.048Z,12.55
2019-04-03T18:08:24.513Z,12.37
2019-04-03T18:10:51.287Z,10.93
2019-04-03T18:13:17.593Z,10.25
2019-04-03T18:15:43.837Z,9.83
2019-04-03T18:18:11.280Z,10.88
2019-04-03T18:20:37.508Z,12.03
2019-04-03T18:23:03.952Z,10.55
2019-04-03T18:25:30.396Z,8.38
2019-04-03T18:27:56.726Z,9.85
2019-04-03T18:30:23.694Z,8.18
2019-04-03T18:32:50.204Z,8.88
2019-04-03T18:35:16.628Z,15.72
2019-04-03T18:37:42.997Z,11.78
2019-04-03T18:40:09.957Z,8.48
2019-04-03T18:42:36.373Z,10.35
2019-04-03T18:45:04.517Z,11.30
2019-04-03T18:47:40.481Z,10.03
2019-04-03T18:50:00.877Z,12.60
2019-04-03T18:52:27.429Z,14.68
2019-04-03T18:54:53.823Z,10.72
2019-04-03T18:57:20.368Z,10.98
2019-04-03T18:59:46.613Z,9.40
2019-04-03T19:02:13.092Z,9.45
2019-04-03T19:04:39.335Z,8.53
2019-04-03T19:07:05.685Z,11.35
2019-04-03T19:09:32.166Z,14.70
2019-04-03T19:12:07.886Z,14.73
2019-04-03T19:14:29.386Z,12.05
2019-04-03T19:16:55.199Z,11.50
2019-04-03T19:19:23.600Z,10.58
2019-04-03T19:21:49.624Z,11.10
2019-04-03T19:24:16.065Z,11.78
2019-04-03T19:26:42.396Z,10.85
2019-04-03T19:29:08.833Z,9.73
2019-04-03T19:31:35.281Z,10.75
2019-04-03T19:34:01.666Z,8.10
2019-04-03T19:36:29.929Z,7.95
2019-04-03T19:38:56.261Z,13.58
2019-04-03T19:41:22.613Z,11.68
2019-04-03T19:43:48.978Z,9.90
2019-04-03T19:46:15.458Z,11.47
2019-04-03T19:48:41.689Z,10.08
2019-04-03T19:51:07.950Z,9.88
2019-04-03T19:53:35.827Z,13.43
2019-04-03T19:56:02.313Z,8.93
2019-04-03T19:58:29.530Z,9.30
2019-04-03T20:00:56.317Z,8.68
2019-04-03T20:03:22.752Z,8.18
2019-04-03T20:05:50.781Z,10.10
2019-04-03T20:08:18.381Z,11.85
2019-04-03T20:10:44.825Z,8.35
2019-04-03T20:13:11.196Z,8.53
2019-04-03T20:15:37.441Z,7.95
2019-04-03T20:18:03.881Z,8.93
2019-04-03T20:20:33.368Z,10.95
2019-04-03T20:22:58.286Z,8.88
2019-04-03T20:25:24.629Z,8.28
2019-04-03T20:27:52.208Z,10.30
2019-04-03T20:30:18.736Z,8.70
2019-04-03T20:32:45.095Z,9.40
2019-04-03T20:35:11.530Z,9.23
2019-04-03T20:37:37.973Z,11.75
2019-04-03T20:40:05.004Z,13.10
2019-04-03T20:42:31.364Z,13.62
2019-04-03T20:44:57.824Z,12.88
2019-04-03T20:47:26.576Z,10.98
2019-04-03T20:49:52.300Z,10.05
2019-04-03T20:52:18.736Z,12.43
2019-04-03T20:54:44.969Z,8.20
2019-04-03T20:57:13.510Z,9.60
2019-04-03T20:59:42.631Z,8.45
2019-04-03T21:02:08.271Z,10.35
2019-04-03T21:04:35.217Z,8.23
2019-04-03T21:07:01.476Z,9.13
2019-04-03T21:09:29.682Z,10.38
2019-04-03T21:11:56.060Z,10.88
2019-04-03T21:14:22.455Z,13.15
2019-04-03T21:16:48.886Z,11.28
2019-04-03T21:19:15.131Z,8.98
2019-04-03T21:21:41.645Z,9.70
2019-04-03T21:24:07.885Z,10.88
2019-04-03T21:26:34.228Z,8.63
2019-04-03T21:29:00.664Z,12.90
2019-04-03T21:31:28.205Z,8.48
2019-04-03T21:33:55.197Z,13.30
2019-04-03T21:36:21.705Z,10.23
2019-04-03T21:38:47.929Z,9.45
2019-04-03T21:41:14.273Z,10.05
2019-04-03T21:43:40.541Z,10.90
2019-04-03T21:46:06.987Z,9.50
2019-04-03T21:48:35.053Z,10.20
2019-04-03T21:51:01.682Z,12.00
2019-04-03T21:53:28.009Z,8.88
2019-04-03T21:55:54.351Z,9.03
2019-04-03T21:58:20.823Z,14.87
2019-04-03T22:00:59.976Z,8.85
2019-04-03T22:03:26.554Z,8.05
2019-04-03T22:05:55.641Z,7.70
2019-04-03T22:08:21.156Z,12.35
2019-04-03T22:10:50.354Z,12.07
2019-04-03T22:13:16.097Z,8.88
2019-04-03T22:15:45.287Z,9.08
2019-04-03T22:18:10.900Z,9.95
2019-04-03T22:20:37.230Z,8.40
2019-04-03T22:23:04.900Z,9.08
2019-04-03T22:25:31.748Z,13.72
2019-04-03T22:27:58.196Z,6.53
2019-04-03T22:30:24.447Z,14.05
2019-04-03T22:32:50.973Z,8.25
2019-04-03T22:35:17.409Z,10.25
2019-04-03T22:37:43.658Z,11.12
2019-04-03T22:40:10.881Z,7.83
2019-04-03T22:42:37.381Z,8.75
2019-04-03T22:45:03.877Z,9.98
2019-04-03T22:47:30.493Z,11.60
2019-04-03T22:49:56.718Z,8.05
2019-04-03T22:52:23.181Z,7.78
2019-04-03T22:54:49.528Z,10.48
2019-04-03T22:57:15.758Z,10.80
2019-04-03T22:59:41.988Z,11.33
2019-04-03T23:02:08.433Z,8.78
2019-04-03T23:04:34.882Z,9.80
2019-04-03T23:07:01.142Z,12.30
2019-04-03T23:09:27.529Z,8.93
2019-04-03T23:11:53.765Z,10.38
2019-04-03T23:14:20.216Z,11.88
2019-04-03T23:16:46.680Z,11.18
2019-04-03T23:19:13.089Z,8.43
2019-04-03T23:21:39.833Z,12.50
2019-04-03T23:24:06.466Z,10.08
2019-04-03T23:26:32.908Z,8.93
2019-04-03T23:28:59.241Z,11.25
2019-04-03T23:31:25.613Z,11.05
2019-04-03T23:33:52.073Z,17.40
2019-04-03T23:36:18.306Z,10.78
2019-04-03T23:38:44.757Z,8.23
2019-04-03T23:41:10.996Z,9.55
2019-04-03T23:43:39.265Z,11.22
2019-04-03T23:46:05.873Z,11.00
2019-04-03T23:48:32.303Z,9.63
2019-04-03T23:50:58.645Z,13.55
2019-04-03T23:53:25.237Z,11.28
2019-04-03T23:55:51.786Z,8.10
2019-04-03T23:58:18.125Z,9.10
